Aviation Digital Data Service (ADDS)

Output produced by METARs form (2328 UTC 23 May 2022)
found at http://www.aviationweather.gov/metar/data/
 
KWJF 231737Z 2318/2418 29009KT P6SM SKC 
     FM232100 30012G20KT P6SM SKC 
     FM240300 27015G23KT P6SM SKC 
     FM240600 26010KT P6SM FEW250
       
KWMC 232328Z 2400/2424 VRB06KT P6SM FEW100 
     FM242000 28010KT P6SM SCT250
       
TAF AMD KWRB 232043Z 2320/2422 20012G20KT 9000 -RA VCTS SCT025 BKN030CB OVC100
QNH3005INS 
     TEMPO 2320/2324 23015G25KT 1600 +TSRA BR FEW005 BKN010CB BKN025 
     BECMG 2400/2401 VRB06KT 9999 NSW SCT040 BKN100 BKN250 QNH3002INS 
     BECMG 2411/2412 VRB06KT 9000 -SHRA BKN015 OVC050 QNH3000INS 
     BECMG 2414/2415 05006KT 9000 -SHRA BKN025 OVC050 QNH2999INS TX26/2321Z
TN19/2408Z
       
TAF AMD KWRI 231830Z 2318/2424 02009KT 9999 SCT080 QNH3014INS 
     BECMG 2400/2401 14007KT 9999 FEW030 BKN120 QNH3018INS 
     BECMG 2404/2405 06006KT 9000 -SHRA BKN030 QNH3019INS 
     BECMG 2410/2411 07010G15KT 9999 NSW BKN025 QNH3020INS 
     BECMG 2417/2418 05008KT 9999 BKN120 QNH3026INS TX24/2320Z TN13/2409Z
       
KWRL 232320Z 2400/2424 VRB06KT P6SM SCT100 BKN200 
     FM240500 16004KT P6SM OVC100 
     FM240700 VRB05KT P6SM OVC100
       
KWYS 232324Z 2400/2424 23008KT P6SM BKN100 
     FM241500 21006KT P6SM VCSH OVC070